Time;durP1;ratioP1;P1;durP2;ratioP2;P2;SDS_P1;SDS_P2;PMS_P1;PMS_P2;Temp;Humidity;BMP_temperature;BMP_pressure;BME280_temperature;BME280_humidity;BME280_pressure;Samples;Min_cycle;Max_cycle;Signal;HPM_P1;HPM_P2
2022/10/20 00:02:35;;;;;;;22.20;13.10;;;15.60;99.90;;;;;;5033582;28;20066;-64
2022/10/20 00:05:40;;;;;;;24.50;13.65;;;15.50;99.90;;;;;;5033319;28;20048;-64
2022/10/20 00:08:45;;;;;;;22.02;13.80;;;15.40;99.90;;;;;;5033417;28;20048;-64
2022/10/20 00:11:49;;;;;;;22.20;12.63;;;15.50;99.90;;;;;;5033512;28;20045;-64
2022/10/20 00:14:53;;;;;;;24.85;14.60;;;15.50;99.90;;;;;;5033442;28;20040;-64
2022/10/20 00:17:57;;;;;;;25.05;14.95;;;15.60;99.90;;;;;;5032189;28;20068;-64
2022/10/20 00:21:08;;;;;;;26.33;13.57;;;15.60;99.90;;;;;;5033492;28;20040;-64
2022/10/20 00:24:12;;;;;;;29.67;15.07;;;15.70;99.90;;;;;;5033108;28;20060;-64
2022/10/20 00:27:16;;;;;;;26.08;14.38;;;15.70;99.90;;;;;;5032720;28;20543;-64
2022/10/20 00:30:20;;;;;;;20.77;12.65;;;15.70;99.90;;;;;;5020866;28;20052;-64
2022/10/20 00:33:25;;;;;;;17.98;12.27;;;15.60;99.90;;;;;;5033253;28;20061;-64
2022/10/20 00:36:29;;;;;;;22.85;11.95;;;15.60;99.90;;;;;;5032786;28;20052;-64
2022/10/20 00:39:33;;;;;;;20.95;11.93;;;15.50;99.90;;;;;;5033055;28;20517;-64
2022/10/20 00:42:37;;;;;;;26.10;14.25;;;15.40;99.90;;;;;;5032741;28;20044;-65
2022/10/20 00:45:44;;;;;;;27.90;13.00;;;15.40;99.90;;;;;;5032759;28;20044;-64
2022/10/20 00:48:52;;;;;;;28.13;14.68;;;15.30;99.90;;;;;;5033053;28;20040;-64
2022/10/20 00:51:57;;;;;;;22.65;14.02;;;15.30;99.90;;;;;;5020288;28;20060;-64
2022/10/20 00:55:01;;;;;;;21.45;13.05;;;15.30;99.90;;;;;;5032376;28;20037;-64
2022/10/20 00:58:05;;;;;;;20.98;12.98;;;15.20;99.90;;;;;;5032700;28;20057;-64
2022/10/20 01:01:11;;;;;;;22.55;13.32;;;15.30;99.90;;;;;;5032566;28;20041;-64
2022/10/20 01:04:17;;;;;;;20.27;11.82;;;15.30;99.90;;;;;;5032517;28;20044;-64
2022/10/20 01:07:20;;;;;;;21.77;12.32;;;15.20;99.90;;;;;;5032218;28;20036;-65
2022/10/20 01:10:27;;;;;;;22.25;12.95;;;15.30;99.90;;;;;;5032493;28;20045;-64
2022/10/20 01:13:55;;;;;;;26.48;13.77;;;15.30;99.90;;;;;;5032150;28;20065;-64
2022/10/20 01:17:05;;;;;;;23.17;13.10;;;15.30;99.90;;;;;;5032059;28;20045;-65
2022/10/20 01:20:09;;;;;;;24.85;13.55;;;15.30;99.90;;;;;;5032347;28;20048;-64
2022/10/20 01:23:47;;;;;;;24.58;13.90;;;15.20;99.90;;;;;;5031762;28;20048;-64
2022/10/20 01:27:13;;;;;;;17.38;10.93;;;15.20;99.90;;;;;;5031844;28;20048;-64
2022/10/20 01:30:20;;;;;;;16.02;9.80;;;14.90;99.90;;;;;;5032195;28;20033;-65
2022/10/20 01:33:41;;;;;;;20.90;11.63;;;14.90;99.90;;;;;;5031902;28;20044;-64
2022/10/20 01:37:00;;;;;;;16.77;10.85;;;14.80;99.90;;;;;;5032027;28;20116;-64
2022/10/20 01:40:10;;;;;;;18.92;12.02;;;14.70;99.90;;;;;;5032004;28;20053;-64
2022/10/20 01:43:18;;;;;;;22.40;13.00;;;14.80;99.90;;;;;;5031278;28;20058;-64
2022/10/20 01:46:25;;;;;;;22.40;12.50;;;14.70;99.90;;;;;;5031644;28;20108;-64
2022/10/20 01:49:29;;;;;;;17.50;12.13;;;14.70;99.90;;;;;;5031672;28;20491;-64
2022/10/20 01:52:33;;;;;;;17.13;10.60;;;14.80;99.90;;;;;;5031497;28;20045;-64
2022/10/20 01:55:37;;;;;;;21.20;12.57;;;14.80;99.90;;;;;;5031684;28;20045;-64
2022/10/20 01:58:41;;;;;;;17.50;11.48;;;14.70;99.90;;;;;;5031496;28;20045;-65
2022/10/20 02:02:22;;;;;;;19.20;12.98;;;14.70;99.90;;;;;;5019137;28;20492;-64
2022/10/20 02:05:43;;;;;;;21.33;12.77;;;14.70;99.90;;;;;;5031550;28;20052;-64
2022/10/20 02:08:54;;;;;;;22.73;13.25;;;14.50;99.90;;;;;;5031650;28;20044;-64
2022/10/20 02:12:28;;;;;;;25.55;15.73;;;14.50;99.90;;;;;;5031741;28;20049;-64
2022/10/20 02:15:35;;;;;;;28.17;16.00;;;14.40;99.90;;;;;;5031304;28;20123;-64
2022/10/20 02:18:42;;;;;;;23.33;14.77;;;14.40;99.90;;;;;;5031944;28;20049;-64
2022/10/20 02:21:47;;;;;;;21.50;12.90;;;14.50;99.90;;;;;;5031189;28;20040;-64
2022/10/20 02:24:51;;;;;;;23.17;16.52;;;14.50;99.90;;;;;;5031510;28;20052;-64
2022/10/20 02:27:57;;;;;;;20.10;13.18;;;14.50;99.90;;;;;;5031054;28;20056;-64
2022/10/20 02:31:02;;;;;;;26.50;14.32;;;14.50;99.90;;;;;;5031524;28;20045;-64
2022/10/20 02:34:07;;;;;;;21.23;13.95;;;14.50;99.90;;;;;;5031156;28;20036;-64
2022/10/20 02:37:13;;;;;;;19.70;12.45;;;14.40;99.90;;;;;;5031144;28;20045;-64
2022/10/20 02:40:17;;;;;;;21.58;12.73;;;14.40;99.90;;;;;;5033038;28;20051;-64
2022/10/20 02:43:22;;;;;;;27.75;13.60;;;14.30;99.90;;;;;;5034888;28;20060;-64
2022/10/20 02:46:26;;;;;;;22.65;14.23;;;14.30;99.90;;;;;;5034785;28;20049;-64
2022/10/20 02:49:29;;;;;;;25.42;14.75;;;14.20;99.90;;;;;;5035074;28;20040;-64
2022/10/20 02:52:35;;;;;;;22.85;14.77;;;14.20;99.90;;;;;;5035217;28;20040;-64
2022/10/20 02:55:41;;;;;;;20.63;12.60;;;14.20;99.90;;;;;;5034960;28;20041;-64
2022/10/20 02:58:45;;;;;;;22.25;14.13;;;14.20;99.90;;;;;;5034920;28;20496;-64
2022/10/20 03:01:51;;;;;;;28.42;17.23;;;14.20;99.90;;;;;;5034945;28;20044;-64
2022/10/20 03:04:55;;;;;;;26.65;15.55;;;14.10;99.90;;;;;;5034517;28;20036;-64
2022/10/20 03:07:59;;;;;;;25.90;14.77;;;14.00;99.90;;;;;;5034457;28;20053;-64
2022/10/20 03:11:03;;;;;;;22.23;13.00;;;13.90;99.90;;;;;;5034751;28;20496;-64
2022/10/20 03:14:07;;;;;;;22.15;13.68;;;13.80;99.90;;;;;;5034407;28;20507;-65
2022/10/20 03:17:11;;;;;;;21.80;13.30;;;13.80;99.90;;;;;;5034380;28;20392;-63
2022/10/20 03:20:15;;;;;;;22.25;14.02;;;13.70;99.90;;;;;;5034843;28;20499;-64
2022/10/20 03:23:20;;;;;;;22.55;13.82;;;13.70;99.90;;;;;;5034201;28;20048;-63
2022/10/20 03:26:24;;;;;;;25.75;14.82;;;13.70;99.90;;;;;;5034452;28;20108;-64
2022/10/20 03:29:28;;;;;;;20.67;13.52;;;13.70;99.90;;;;;;5034436;28;20052;-64
2022/10/20 03:32:32;;;;;;;23.00;14.52;;;13.60;99.90;;;;;;5034405;28;20040;-64
2022/10/20 03:35:36;;;;;;;26.13;14.52;;;13.60;99.90;;;;;;5034011;28;20403;-64
2022/10/20 03:38:44;;;;;;;22.42;13.98;;;13.60;99.90;;;;;;5033988;28;20040;-63
2022/10/20 03:41:48;;;;;;;23.35;14.75;;;13.60;99.90;;;;;;5034248;28;20045;-63
2022/10/20 03:44:52;;;;;;;25.10;13.88;;;13.60;99.90;;;;;;5034116;28;20045;-64
2022/10/20 03:47:56;;;;;;;22.52;13.45;;;13.60;99.90;;;;;;5033811;28;20045;-64
2022/10/20 03:51:01;;;;;;;25.42;13.55;;;13.60;99.90;;;;;;5032901;28;20041;-64
2022/10/20 03:54:05;;;;;;;23.55;13.02;;;13.60;99.90;;;;;;5033609;28;20044;-64
2022/10/20 03:57:08;;;;;;;20.33;13.15;;;13.60;99.90;;;;;;5033651;28;20048;-63
2022/10/20 04:00:12;;;;;;;19.08;11.73;;;13.60;99.90;;;;;;5033477;28;20041;-64
2022/10/20 04:03:17;;;;;;;26.90;13.02;;;13.50;99.90;;;;;;5033710;28;20052;-64
2022/10/20 04:06:21;;;;;;;22.85;12.82;;;13.40;99.90;;;;;;5033424;28;20511;-64
2022/10/20 04:09:25;;;;;;;22.15;13.13;;;13.40;99.90;;;;;;5033552;28;20053;-63
2022/10/20 04:12:29;;;;;;;26.00;13.63;;;13.30;99.90;;;;;;5033553;28;20048;-64
2022/10/20 04:15:33;;;;;;;24.33;14.65;;;13.30;99.90;;;;;;5033296;28;20056;-64
2022/10/20 04:18:37;;;;;;;23.60;15.48;;;13.30;99.90;;;;;;5033309;28;20064;-64
2022/10/20 04:21:41;;;;;;;26.85;15.25;;;13.30;99.90;;;;;;5033622;28;20057;-63
2022/10/20 04:24:45;;;;;;;35.58;15.77;;;13.30;99.90;;;;;;5032986;28;20048;-63
2022/10/20 04:27:49;;;;;;;28.92;15.40;;;13.30;99.90;;;;;;5033337;28;20048;-63
2022/10/20 04:30:53;;;;;;;29.48;17.15;;;13.30;99.90;;;;;;5033204;28;20064;-63
2022/10/20 04:33:57;;;;;;;30.60;18.08;;;13.30;99.90;;;;;;5033215;28;20053;-64
2022/10/20 04:37:01;;;;;;;31.13;18.92;;;13.20;99.90;;;;;;5033013;28;20044;-64
2022/10/20 04:40:06;;;;;;;33.63;20.88;;;13.30;99.90;;;;;;5032965;28;20733;-64
2022/10/20 04:43:09;;;;;;;41.70;21.02;;;13.20;99.90;;;;;;5032965;28;20041;-63
2022/10/20 04:46:13;;;;;;;30.30;18.92;;;13.00;99.90;;;;;;5032884;28;20503;-63
2022/10/20 04:49:17;;;;;;;31.48;21.13;;;12.90;99.90;;;;;;5032790;28;20044;-64
2022/10/20 04:52:21;;;;;;;26.05;16.38;;;12.80;99.90;;;;;;5033139;28;20040;-63
2022/10/20 04:55:25;;;;;;;99.80;23.45;;;12.70;99.90;;;;;;5032638;28;20492;-63
2022/10/20 04:58:29;;;;;;;37.35;20.90;;;12.60;99.90;;;;;;5032633;28;20052;-63
2022/10/20 05:01:33;;;;;;;67.28;20.40;;;12.50;99.90;;;;;;5032941;28;20392;-64
2022/10/20 05:04:37;;;;;;;110.68;20.33;;;12.50;99.90;;;;;;5032167;28;20048;-63
2022/10/20 05:07:41;;;;;;;52.13;17.17;;;12.50;99.90;;;;;;5032391;28;20044;-64
2022/10/20 05:10:45;;;;;;;128.10;17.60;;;12.60;99.90;;;;;;5032311;28;20048;-63
2022/10/20 05:13:49;;;;;;;36.60;19.00;;;12.50;99.90;;;;;;5031631;28;20045;-63
2022/10/20 05:16:53;;;;;;;48.17;19.58;;;12.50;99.90;;;;;;5031909;28;20048;-64
2022/10/20 05:19:57;;;;;;;29.95;16.63;;;12.50;99.90;;;;;;5031811;28;20060;-63
2022/10/20 05:23:01;;;;;;;45.53;19.33;;;12.50;99.90;;;;;;5032160;28;20045;-63
2022/10/20 05:26:08;;;;;;;33.95;19.95;;;12.40;99.90;;;;;;5031951;28;20052;-63
2022/10/20 05:29:12;;;;;;;43.47;19.77;;;12.40;99.90;;;;;;5031456;28;20512;-63
2022/10/20 05:32:16;;;;;;;41.17;20.25;;;12.50;99.90;;;;;;5030832;28;20032;-64
2022/10/20 05:35:20;;;;;;;37.35;19.48;;;12.60;99.90;;;;;;5031257;28;20033;-63
2022/10/20 05:38:24;;;;;;;33.67;18.98;;;12.50;99.90;;;;;;5031567;28;20049;-63
2022/10/20 05:41:30;;;;;;;37.70;19.75;;;12.60;99.90;;;;;;5031596;28;20068;-63
2022/10/20 05:44:34;;;;;;;37.78;19.80;;;12.60;99.90;;;;;;5031330;28;20040;-63
2022/10/20 05:47:38;;;;;;;32.50;18.38;;;12.70;99.90;;;;;;5031120;28;20049;-63
2022/10/20 05:50:42;;;;;;;35.35;17.40;;;12.70;99.90;;;;;;5031384;28;20069;-63
2022/10/20 05:53:46;;;;;;;30.30;15.70;;;12.70;99.90;;;;;;5031073;28;20041;-63
2022/10/20 05:56:50;;;;;;;31.38;17.27;;;12.80;99.90;;;;;;5031564;28;20044;-63
2022/10/20 05:59:54;;;;;;;46.25;19.42;;;12.90;99.90;;;;;;5031574;28;20052;-63
2022/10/20 06:02:58;;;;;;;39.63;18.90;;;13.10;99.90;;;;;;5033317;28;20257;-63
2022/10/20 06:06:03;;;;;;;29.02;17.65;;;13.20;99.90;;;;;;5046055;28;20040;-63
2022/10/20 06:09:08;;;;;;;37.17;18.30;;;13.30;99.90;;;;;;5044080;28;20048;-63
2022/10/20 06:12:12;;;;;;;34.53;18.27;;;13.50;99.90;;;;;;5035329;28;20049;-63
2022/10/20 06:15:16;;;;;;;29.85;15.73;;;14.00;99.90;;;;;;5030177;28;20392;-63
2022/10/20 06:18:19;;;;;;;32.80;13.68;;;16.00;99.90;;;;;;5030935;28;20040;-64
2022/10/20 06:21:29;;;;;;;21.15;11.93;;;18.00;99.90;;;;;;5039605;28;20052;-63
2022/10/20 06:24:33;;;;;;;58.75;11.68;;;19.40;99.90;;;;;;5048371;28;20056;-63
2022/10/20 06:27:37;;;;;;;83.30;10.63;;;20.10;99.90;;;;;;5046214;28;20510;-64
2022/10/20 06:30:41;;;;;;;43.40;10.07;;;20.50;99.90;;;;;;5039965;28;20482;-64
2022/10/20 06:33:46;;;;;;;82.13;13.20;;;20.90;99.90;;;;;;5040953;28;20043;-64
2022/10/20 06:36:51;;;;;;;30.63;9.60;;;21.50;99.90;;;;;;5048380;28;20048;-63
2022/10/20 06:39:55;;;;;;;16.08;10.27;;;21.50;99.90;;;;;;5046809;28;20063;-63
2022/10/20 06:42:59;;;;;;;10.98;7.53;;;21.70;99.90;;;;;;5042558;28;20129;-64
2022/10/20 06:46:06;;;;;;;43.28;8.70;;;22.30;99.90;;;;;;5046419;28;20104;-64
2022/10/20 06:49:11;;;;;;;17.10;6.93;;;22.40;99.90;;;;;;5035798;28;20048;-64
2022/10/20 06:52:16;;;;;;;10.32;6.88;;;22.80;99.90;;;;;;5031831;28;20036;-64
2022/10/20 06:55:19;;;;;;;10.98;6.80;;;24.00;99.90;;;;;;5038994;28;20108;-63
2022/10/20 06:58:24;;;;;;;8.73;6.32;;;25.00;99.90;;;;;;5040832;28;20052;-64
2022/10/20 07:01:30;;;;;;;10.45;6.88;;;25.90;99.90;;;;;;5050062;28;20052;-64
2022/10/20 07:04:35;;;;;;;10.30;7.45;;;26.30;99.90;;;;;;5048214;28;20056;-64
2022/10/20 07:07:39;;;;;;;11.57;7.40;;;26.70;99.90;;;;;;5050468;28;20495;-64
2022/10/20 07:10:43;;;;;;;16.27;7.57;;;26.70;99.90;;;;;;5037845;28;20048;-64
2022/10/20 07:13:48;;;;;;;11.65;6.40;;;26.60;99.90;;;;;;5045021;28;20068;-64
2022/10/20 07:16:52;;;;;;;10.00;5.70;;;25.80;99.90;;;;;;5044412;28;20045;-64
2022/10/20 07:19:57;;;;;;;10.77;6.82;;;25.30;99.90;;;;;;5037640;28;20056;-64
2022/10/20 07:23:00;;;;;;;6.95;5.47;;;24.60;99.90;;;;;;5033073;28;20036;-64
2022/10/20 07:26:06;;;;;;;10.02;6.00;;;24.50;99.90;;;;;;5048970;28;20507;-64
2022/10/20 07:29:12;;;;;;;6.47;5.10;;;25.70;99.90;;;;;;5043699;28;20056;-64
2022/10/20 07:32:16;;;;;;;10.07;4.88;;;27.00;99.70;;;;;;5037205;28;20041;-65
2022/10/20 07:35:20;;;;;;;6.97;4.15;;;27.10;99.30;;;;;;5050681;28;20396;-64
2022/10/20 07:38:25;;;;;;;5.85;4.07;;;27.10;99.10;;;;;;5045458;28;20555;-64
2022/10/20 07:41:29;;;;;;;7.45;4.50;;;26.90;98.90;;;;;;5041115;28;20657;-64
2022/10/20 07:44:33;;;;;;;7.35;5.50;;;28.40;97.70;;;;;;5046674;28;20380;-65
2022/10/20 07:47:36;;;;;;;6.70;4.97;;;28.00;97.10;;;;;;5045962;28;20490;-65
2022/10/20 07:50:41;;;;;;;8.18;5.20;;;28.30;97.50;;;;;;5036974;28;20049;-65
2022/10/20 07:53:45;;;;;;;8.57;5.75;;;28.90;96.60;;;;;;5052981;28;20052;-65
2022/10/20 07:56:49;;;;;;;9.45;6.18;;;29.00;96.10;;;;;;5039686;28;20037;-65
2022/10/20 07:59:52;;;;;;;9.57;5.60;;;29.00;96.30;;;;;;5034668;28;20049;-65
2022/10/20 08:02:56;;;;;;;8.55;5.50;;;30.30;95.50;;;;;;5036175;28;20037;-64
2022/10/20 08:06:01;;;;;;;8.93;5.75;;;31.80;93.40;;;;;;5052763;28;20367;-66
2022/10/20 08:09:06;;;;;;;11.40;5.80;;;31.70;93.30;;;;;;5033744;28;20053;-65
2022/10/20 08:12:09;;;;;;;6.93;4.80;;;32.50;92.60;;;;;;5049084;28;20037;-65
2022/10/20 08:15:13;;;;;;;5.90;4.38;;;30.20;93.10;;;;;;5041229;28;20036;-65
2022/10/20 08:18:18;;;;;;;7.22;4.60;;;29.10;94.30;;;;;;5043000;28;20052;-64
2022/10/20 08:21:22;;;;;;;10.90;4.65;;;28.90;94.70;;;;;;5040447;28;20044;-66
2022/10/20 08:24:26;;;;;;;7.03;4.15;;;30.40;94.00;;;;;;5033427;28;20492;-66
2022/10/20 08:27:30;;;;;;;7.35;5.00;;;31.80;92.80;;;;;;5040876;28;20052;-65
2022/10/20 08:30:36;;;;;;;8.13;4.43;;;32.70;91.80;;;;;;5038631;28;20044;-66
2022/10/20 08:33:40;;;;;;;7.65;5.40;;;33.50;91.10;;;;;;5045647;28;20048;-65
2022/10/20 08:36:44;;;;;;;8.73;5.15;;;34.90;90.50;;;;;;5041160;28;20044;-65
2022/10/20 08:39:48;;;;;;;6.63;4.32;;;33.90;89.90;;;;;;5050568;28;20052;-65
2022/10/20 08:42:53;;;;;;;5.30;3.92;;;31.90;91.20;;;;;;5045126;28;20036;-65
2022/10/20 08:45:58;;;;;;;6.70;5.03;;;32.20;91.30;;;;;;5044047;28;20036;-65
2022/10/20 08:49:05;;;;;;;8.10;4.90;;;32.80;91.30;;;;;;5049717;28;20675;-65
2022/10/20 08:52:14;;;;;;;7.90;5.00;;;32.70;90.90;;;;;;5044788;28;20036;-65
2022/10/20 08:55:30;;;;;;;7.97;5.65;;;31.40;91.20;;;;;;5051715;28;20032;-65
2022/10/20 08:58:33;;;;;;;5.45;4.15;;;31.70;91.60;;;;;;5052876;28;20499;-65
2022/10/20 09:01:38;;;;;;;7.47;4.72;;;30.70;91.70;;;;;;5025289;28;20127;-64
2022/10/20 09:04:48;;;;;;;8.20;3.92;;;30.90;91.30;;;;;;5045314;28;20392;-65
2022/10/20 09:07:53;;;;;;;5.78;4.68;;;32.60;91.10;;;;;;5049863;28;20040;-65
2022/10/20 09:10:58;;;;;;;6.72;4.30;;;33.60;88.20;;;;;;5043597;28;20167;-66
2022/10/20 09:14:02;;;;;;;7.07;4.45;;;33.40;88.70;;;;;;5038302;28;20040;-65
2022/10/20 09:17:16;;;;;;;9.20;4.15;;;34.40;87.40;;;;;;5041471;28;20692;-64
2022/10/20 09:20:41;;;;;;;7.10;4.55;;;35.10;86.70;;;;;;5044513;28;20032;-65
2022/10/20 09:24:00;;;;;;;7.50;3.67;;;36.70;85.10;;;;;;5047314;28;20040;-65
2022/10/20 09:27:40;;;;;;;7.45;3.75;;;38.00;82.90;;;;;;5048277;28;20052;-66
2022/10/20 09:30:44;;;;;;;5.90;3.70;;;37.90;80.00;;;;;;5017085;28;20116;-65
2022/10/20 09:33:49;;;;;;;4.72;3.60;;;36.00;82.40;;;;;;5041968;28;20376;-65
2022/10/20 09:37:11;;;;;;;5.00;3.50;;;37.50;81.00;;;;;;5043522;28;20044;-65
2022/10/20 09:40:16;;;;;;;6.03;3.60;;;37.80;80.20;;;;;;5034755;28;20048;-65
2022/10/20 09:43:20;;;;;;;6.68;3.60;;;38.70;79.80;;;;;;5041531;28;20383;-65
2022/10/20 09:46:33;;;;;;;7.50;3.50;;;39.70;78.00;;;;;;5046139;28;20036;-65
2022/10/20 09:49:38;;;;;;;11.02;4.68;;;40.30;77.00;;;;;;5041787;28;20040;-66
2022/10/20 09:52:47;;;;;;;4.65;3.38;;;40.70;75.70;;;;;;5044364;28;20539;-65
2022/10/20 09:55:51;;;;;;;6.75;3.10;;;39.20;75.60;;;;;;5046119;28;20068;-66
2022/10/20 09:58:58;;;;;;;5.90;3.38;;;39.80;75.20;;;;;;5045086;28;20035;-65
2022/10/20 10:02:23;;;;;;;5.65;2.85;;;40.40;74.00;;;;;;5043462;28;20060;-64
2022/10/20 10:05:32;;;;;;;6.35;3.20;;;41.20;72.10;;;;;;5041235;28;20068;-63
2022/10/20 10:08:45;;;;;;;5.18;2.88;;;40.30;71.60;;;;;;5042577;28;20044;-64
2022/10/20 10:12:16;;;;;;;7.20;3.40;;;40.90;71.10;;;;;;5045284;28;20376;-64
2022/10/20 10:15:25;;;;;;;5.30;3.03;;;41.50;70.70;;;;;;5049089;28;20499;-63
2022/10/20 10:18:29;;;;;;;10.05;3.63;;;41.80;69.50;;;;;;5044042;28;20040;-64
2022/10/20 10:21:46;;;;;;;6.18;3.50;;;41.40;68.80;;;;;;5049172;28;20044;-64
2022/10/20 10:24:54;;;;;;;7.35;3.42;;;42.10;69.10;;;;;;5041711;28;20044;-65
2022/10/20 10:28:07;;;;;;;5.32;3.05;;;43.20;67.40;;;;;;5049464;28;20056;-65
2022/10/20 10:31:20;;;;;;;8.45;3.15;;;44.30;66.10;;;;;;5044665;28;20041;-65
2022/10/20 10:34:43;;;;;;;7.60;3.83;;;45.20;64.10;;;;;;5044724;28;20045;-65
2022/10/20 10:37:48;;;;;;;6.70;4.32;;;45.70;60.60;;;;;;5040863;28;20052;-66
2022/10/20 10:41:02;;;;;;;20.63;14.38;;;45.00;59.70;;;;;;5044190;28;20059;-64
2022/10/20 10:44:13;;;;;;;33.80;23.77;;;42.80;60.40;;;;;;5044850;28;20395;-65
2022/10/20 10:47:39;;;;;;;37.55;26.27;;;38.90;59.20;;;;;;5047393;28;20040;-64
2022/10/20 10:50:58;;;;;;;38.72;25.05;;;38.10;62.40;;;;;;5043012;28;20064;-64
2022/10/20 10:54:10;;;;;;;30.38;22.02;;;38.00;63.80;;;;;;5037210;28;20048;-64
2022/10/20 10:57:56;;;;;;;26.73;18.90;;;40.10;62.90;;;;;;5045536;28;20052;-65
2022/10/20 11:01:27;;;;;;;24.67;15.40;;;42.10;61.70;;;;;;5052752;28;20249;-65
2022/10/20 11:04:56;;;;;;;18.63;13.02;;;43.40;60.20;;;;;;5046567;28;20194;-66
2022/10/20 11:08:05;;;;;;;18.08;11.27;;;44.10;60.50;;;;;;5052247;28;20044;-65
2022/10/20 11:11:15;;;;;;;13.10;8.30;;;44.00;60.30;;;;;;5043469;28;20116;-65
2022/10/20 11:14:39;;;;;;;12.10;6.10;;;40.30;61.70;;;;;;5042232;28;20569;-65
2022/10/20 11:17:46;;;;;;;6.63;3.78;;;41.20;63.20;;;;;;5050959;28;20498;-65
2022/10/20 11:21:08;;;;;;;7.78;3.03;;;42.20;61.90;;;;;;5050359;28;20044;-65
2022/10/20 11:24:31;;;;;;;7.00;3.53;;;41.80;61.90;;;;;;5050460;28;20051;-64
2022/10/20 11:27:37;;;;;;;5.13;3.17;;;41.50;63.40;;;;;;5048697;28;20047;-65
2022/10/20 11:30:41;;;;;;;5.85;2.78;;;42.90;62.20;;;;;;5052325;28;20060;-65
2022/10/20 11:33:49;;;;;;;4.25;2.22;;;43.90;61.60;;;;;;5044253;28;20808;-66
2022/10/20 11:37:14;;;;;;;5.32;2.63;;;43.90;59.90;;;;;;5051143;28;20040;-65
2022/10/20 11:40:29;;;;;;;7.20;2.17;;;43.10;59.60;;;;;;5048817;28;20040;-65
2022/10/20 11:43:45;;;;;;;8.20;2.53;;;42.10;60.70;;;;;;5044361;28;20040;-64
2022/10/20 14:14:29;;;;;;;4.63;2.47;;;35.60;60.40;;;;;;5034885;28;20040;-64
2022/10/20 14:17:33;;;;;;;9.07;2.47;;;34.80;62.60;;;;;;5030966;28;20044;-65
2022/10/20 14:20:37;;;;;;;6.53;2.47;;;34.90;62.90;;;;;;5031259;28;20056;-64
2022/10/20 14:23:43;;;;;;;4.70;2.40;;;34.50;61.90;;;;;;5030869;28;20396;-64
2022/10/20 14:26:48;;;;;;;5.65;2.50;;;34.00;61.50;;;;;;5030845;28;20037;-64
2022/10/20 14:29:53;;;;;;;5.28;2.70;;;34.50;62.50;;;;;;5030819;28;20052;-65
2022/10/20 14:32:57;;;;;;;3.65;2.33;;;34.50;61.60;;;;;;5031105;28;20392;-64
2022/10/20 14:36:03;;;;;;;6.38;2.95;;;34.30;62.00;;;;;;5032677;28;20036;-64
2022/10/20 14:39:45;;;;;;;4.78;2.17;;;34.10;62.90;;;;;;5034952;28;20056;-64
2022/10/20 14:42:51;;;;;;;5.55;2.55;;;33.80;62.80;;;;;;5034673;28;20124;-64
2022/10/20 14:46:02;;;;;;;6.72;2.83;;;32.90;64.90;;;;;;5034979;28;20191;-64
2022/10/20 14:49:17;;;;;;;7.07;2.63;;;32.20;67.10;;;;;;5033951;28;20052;-64
2022/10/20 14:52:27;;;;;;;11.07;3.45;;;32.00;66.60;;;;;;5034859;28;20044;-66
2022/10/20 14:55:38;;;;;;;6.93;2.50;;;32.10;67.70;;;;;;5033936;28;20113;-65
2022/10/20 14:58:59;;;;;;;7.35;2.80;;;32.30;67.80;;;;;;5034750;28;20048;-65
2022/10/20 15:02:17;;;;;;;6.10;3.10;;;32.30;68.70;;;;;;5034689;28;20045;-65
2022/10/20 15:05:29;;;;;;;11.18;2.63;;;32.00;69.30;;;;;;5034132;28;20052;-65
2022/10/20 15:08:33;;;;;;;6.28;2.75;;;31.70;70.10;;;;;;5034442;28;20393;-65
2022/10/20 15:11:38;;;;;;;8.82;2.30;;;31.30;72.10;;;;;;5042496;28;20045;-65
2022/10/20 15:14:46;;;;;;;7.28;2.67;;;30.80;71.90;;;;;;5048986;28;20052;-66
2022/10/20 15:18:06;;;;;;;8.65;3.08;;;30.10;72.60;;;;;;5054143;28;20376;-65
2022/10/20 15:21:10;;;;;;;24.63;4.78;;;29.50;72.40;;;;;;5053979;28;20044;-65
2022/10/20 15:24:14;;;;;;;14.90;3.20;;;28.90;73.60;;;;;;5053843;28;20052;-65
2022/10/20 15:27:18;;;;;;;16.88;3.83;;;28.50;75.10;;;;;;5054113;28;20056;-65
2022/10/20 15:30:25;;;;;;;16.10;3.88;;;28.10;76.60;;;;;;5040962;28;20380;-65
2022/10/20 15:33:30;;;;;;;15.18;3.80;;;27.70;79.20;;;;;;5046991;28;20115;-65
2022/10/20 15:36:35;;;;;;;18.85;3.45;;;27.30;80.60;;;;;;5047170;28;20040;-65
2022/10/20 15:39:40;;;;;;;11.05;4.03;;;26.80;81.40;;;;;;5054031;28;20619;-65
2022/10/20 15:42:44;;;;;;;10.23;2.97;;;26.30;82.90;;;;;;5046820;28;20076;-64
2022/10/20 15:45:55;;;;;;;9.13;3.38;;;25.90;83.70;;;;;;5049548;28;20044;-64
2022/10/20 15:48:59;;;;;;;10.77;3.30;;;25.50;84.80;;;;;;5050478;28;20498;-64
2022/10/20 15:52:03;;;;;;;8.88;3.15;;;25.10;85.70;;;;;;5053293;28;20274;-64
2022/10/20 15:55:25;;;;;;;17.60;4.15;;;24.80;86.60;;;;;;5052956;28;20044;-64
2022/10/20 15:58:29;;;;;;;10.70;3.90;;;24.50;87.50;;;;;;5053487;28;20048;-64
2022/10/20 16:01:34;;;;;;;18.30;3.88;;;24.00;89.80;;;;;;5052801;28;20052;-64
2022/10/20 16:04:38;;;;;;;17.45;4.07;;;23.90;90.00;;;;;;5052773;28;20056;-64
2022/10/20 16:07:42;;;;;;;12.20;3.70;;;23.80;90.50;;;;;;5042913;28;20041;-64
2022/10/20 16:10:45;;;;;;;11.75;3.75;;;23.50;90.60;;;;;;5046767;28;20044;-64
2022/10/20 16:13:49;;;;;;;11.55;3.55;;;23.30;90.80;;;;;;5035675;28;20048;-64
2022/10/20 16:16:53;;;;;;;11.20;3.60;;;23.10;91.00;;;;;;5048432;28;20076;-64
2022/10/20 16:19:57;;;;;;;10.32;3.40;;;22.90;91.40;;;;;;5051912;28;20048;-64
2022/10/20 16:23:01;;;;;;;7.57;3.63;;;22.70;91.80;;;;;;5052831;28;20056;-64
2022/10/20 16:26:10;;;;;;;12.88;3.15;;;22.50;92.10;;;;;;5052876;28;20515;-64
2022/10/20 16:29:14;;;;;;;10.55;4.10;;;22.30;92.40;;;;;;5052447;28;20044;-64
2022/10/20 16:32:18;;;;;;;15.93;5.20;;;22.20;92.70;;;;;;5052717;28;20380;-64
2022/10/20 16:35:23;;;;;;;8.73;3.72;;;22.00;92.90;;;;;;5052418;28;20052;-65
2022/10/20 16:38:27;;;;;;;9.48;3.70;;;22.00;92.90;;;;;;5052686;28;20048;-64
2022/10/20 16:41:30;;;;;;;11.75;4.68;;;21.90;93.10;;;;;;5052839;28;20048;-64
2022/10/20 16:44:34;;;;;;;11.93;4.00;;;21.80;93.40;;;;;;5052379;28;20044;-64
2022/10/20 16:47:38;;;;;;;11.63;3.75;;;21.80;93.70;;;;;;5052573;28;20384;-64
2022/10/20 16:50:42;;;;;;;10.63;3.58;;;21.70;93.70;;;;;;5052431;28;20044;-64
2022/10/20 16:53:47;;;;;;;15.93;4.10;;;21.70;93.80;;;;;;5052130;28;20395;-65
2022/10/20 16:56:51;;;;;;;6.65;3.45;;;21.60;93.90;;;;;;5052415;28;20036;-65
2022/10/20 16:59:55;;;;;;;14.38;3.63;;;21.60;93.80;;;;;;5052015;28;20048;-64
2022/10/20 17:02:59;;;;;;;8.50;3.42;;;21.50;93.90;;;;;;5052335;28;20056;-64
2022/10/20 17:06:05;;;;;;;13.60;4.07;;;21.50;94.00;;;;;;5052119;28;20047;-64
2022/10/20 17:09:09;;;;;;;13.88;3.92;;;21.40;94.20;;;;;;5051841;28;20043;-65
2022/10/20 17:12:13;;;;;;;17.85;3.92;;;21.30;94.20;;;;;;5051996;28;20040;-64
2022/10/20 17:15:17;;;;;;;13.68;4.63;;;21.30;94.40;;;;;;5051392;28;20463;-64
2022/10/20 17:18:22;;;;;;;13.55;4.22;;;21.20;94.50;;;;;;5051847;28;20036;-64
2022/10/20 17:21:28;;;;;;;19.08;5.78;;;21.20;94.70;;;;;;5050784;28;20387;-65
2022/10/20 17:24:32;;;;;;;23.25;5.68;;;21.20;94.60;;;;;;5051352;28;20044;-64
2022/10/20 17:27:36;;;;;;;16.40;4.82;;;21.10;94.60;;;;;;5052124;28;20059;-64
2022/10/20 17:30:41;;;;;;;17.33;5.63;;;21.10;94.50;;;;;;5051627;28;20055;-64
2022/10/20 17:33:46;;;;;;;15.10;4.93;;;21.10;94.60;;;;;;5051315;28;20060;-65
2022/10/20 17:36:50;;;;;;;12.70;4.38;;;21.10;94.30;;;;;;5051717;28;20044;-64
2022/10/20 17:39:53;;;;;;;15.57;5.00;;;21.00;94.40;;;;;;5039056;28;20040;-65
2022/10/20 17:42:57;;;;;;;15.27;6.10;;;21.00;94.30;;;;;;5051400;28;20052;-64
2022/10/20 17:46:09;;;;;;;15.57;5.60;;;21.00;94.00;;;;;;5051268;28;20391;-64
2022/10/20 17:49:13;;;;;;;12.10;4.35;;;21.10;93.80;;;;;;5051399;28;20044;-64
2022/10/20 17:52:17;;;;;;;17.42;3.63;;;21.10;93.70;;;;;;5051629;28;20044;-64
2022/10/20 17:55:21;;;;;;;9.57;3.20;;;21.00;93.50;;;;;;5050905;28;20047;-64
2022/10/20 17:58:26;;;;;;;10.32;3.53;;;21.00;93.30;;;;;;5051476;28;20044;-64
2022/10/20 18:01:31;;;;;;;6.72;3.03;;;21.00;93.20;;;;;;5051389;28;20048;-64
2022/10/20 18:04:35;;;;;;;13.10;4.18;;;21.00;93.10;;;;;;5050954;28;20044;-64
2022/10/20 18:07:38;;;;;;;8.23;3.85;;;20.90;93.60;;;;;;5050968;28;20044;-64
2022/10/20 18:10:43;;;;;;;9.95;3.60;;;20.80;93.70;;;;;;5050330;28;20059;-64
2022/10/20 18:13:46;;;;;;;15.43;4.07;;;20.70;93.80;;;;;;5050775;28;20040;-64
2022/10/20 18:16:50;;;;;;;11.10;5.90;;;20.60;93.80;;;;;;5038833;28;20423;-64
2022/10/20 18:19:58;;;;;;;14.38;6.25;;;20.10;96.00;;;;;;5051101;28;20064;-64
2022/10/20 18:23:02;;;;;;;15.48;7.03;;;20.00;97.00;;;;;;5051037;28;20048;-64
2022/10/20 18:26:09;;;;;;;13.73;6.97;;;19.90;99.00;;;;;;5050608;28;20399;-64
2022/10/20 18:29:15;;;;;;;14.30;6.45;;;19.80;99.90;;;;;;5050802;28;20039;-65